createdAt,value
2022-10-14T00:01:24.290Z,42.75
2022-10-14T00:03:51.768Z,43.72
2022-10-14T00:06:23.323Z,44.63
2022-10-14T00:08:50.526Z,43.67
2022-10-14T00:11:20.638Z,44.67
2022-10-14T00:13:48.014Z,44.95
2022-10-14T00:16:27.384Z,43.10
2022-10-14T00:18:54.434Z,45.35
2022-10-14T00:21:22.256Z,45.78
2022-10-14T00:23:49.372Z,44.00
2022-10-14T00:26:19.496Z,43.28
2022-10-14T00:28:49.168Z,45.58
2022-10-14T00:31:17.245Z,45.05
2022-10-14T00:33:48.643Z,44.42
2022-10-14T00:36:17.507Z,43.58
2022-10-14T00:38:47.784Z,43.17
2022-10-14T00:41:26.657Z,43.78
2022-10-14T00:44:04.243Z,46.53
2022-10-14T00:46:37.904Z,44.30
2022-10-14T00:49:18.795Z,43.80
2022-10-14T00:52:02.766Z,44.15
2022-10-14T00:54:44.956Z,45.40
2022-10-14T00:57:12.685Z,44.92
2022-10-14T00:59:39.915Z,45.05
2022-10-14T01:02:07.184Z,43.40
2022-10-14T01:04:37.238Z,44.78
2022-10-14T01:07:37.269Z,45.10
2022-10-14T01:10:09.683Z,45.10
2022-10-14T01:12:58.482Z,43.63
2022-10-14T01:15:41.257Z,44.58
2022-10-14T01:18:27.800Z,45.75
2022-10-14T01:21:21.507Z,46.40
2022-10-14T01:23:48.798Z,45.13
2022-10-14T01:26:18.595Z,44.53
2022-10-14T01:29:17.571Z,44.67
2022-10-14T01:31:57.844Z,45.80
2022-10-14T01:34:33.443Z,44.88
2022-10-14T01:37:09.263Z,46.45
2022-10-14T01:39:47.407Z,46.08
2022-10-14T01:42:24.139Z,44.42
2022-10-14T01:44:57.468Z,46.05
2022-10-14T01:47:43.898Z,44.05
2022-10-14T01:50:18.380Z,45.90
2022-10-14T01:53:01.752Z,42.75
2022-10-14T01:55:35.226Z,46.13
2022-10-14T01:58:03.962Z,45.60
2022-10-14T02:00:31.588Z,45.40
2022-10-14T02:03:02.387Z,45.45
2022-10-14T02:05:52.699Z,47.30
2022-10-14T02:08:40.419Z,44.80
2022-10-14T02:11:15.687Z,46.03
2022-10-14T02:13:51.744Z,46.28
2022-10-14T02:16:30.615Z,49.50
2022-10-14T02:19:08.864Z,47.15
2022-10-14T02:22:28.370Z,47.13
2022-10-14T02:25:00.503Z,46.58
2022-10-14T02:27:29.463Z,46.50
2022-10-14T02:29:59.967Z,46.97
2022-10-14T02:32:28.412Z,44.47
2022-10-14T02:34:58.858Z,44.53
2022-10-14T02:37:28.987Z,45.65
2022-10-14T02:40:39.497Z,45.88
2022-10-14T02:43:10.132Z,43.90
2022-10-14T02:45:38.674Z,24.67
2022-10-14T02:48:06.635Z,21.35
2022-10-14T02:50:33.952Z,45.33
2022-10-14T02:53:02.375Z,44.72
2022-10-14T02:55:29.759Z,45.95
2022-10-14T02:57:56.831Z,45.65
2022-10-14T03:00:26.670Z,43.38
2022-10-14T03:02:55.348Z,44.08
2022-10-14T03:05:24.041Z,44.80
2022-10-14T03:07:51.174Z,44.40
2022-10-14T03:10:21.673Z,45.92
2022-10-14T03:12:49.092Z,42.53
2022-10-14T03:15:25.454Z,44.95
2022-10-14T03:17:53.228Z,43.95
2022-10-14T03:20:25.288Z,45.25
2022-10-14T03:22:56.517Z,45.85
2022-10-14T03:25:24.201Z,44.22
2022-10-14T03:28:05.317Z,45.00
2022-10-14T03:30:49.306Z,25.15
2022-10-14T03:33:29.840Z,17.73
2022-10-14T03:36:13.090Z,18.30
2022-10-14T03:38:45.342Z,42.38
2022-10-14T03:41:22.617Z,45.50
2022-10-14T03:43:49.792Z,45.50
2022-10-14T03:46:17.588Z,44.20
2022-10-14T03:48:44.688Z,46.40
2022-10-14T03:51:13.082Z,44.15
2022-10-14T03:53:42.452Z,45.05
2022-10-14T03:56:14.078Z,45.22
2022-10-14T03:58:41.911Z,46.53
2022-10-14T04:01:13.668Z,44.58
2022-10-14T04:04:05.911Z,21.90
2022-10-14T04:06:34.744Z,24.08
2022-10-14T04:09:05.033Z,19.95
2022-10-14T04:11:36.834Z,20.73
2022-10-14T04:14:10.588Z,44.08
2022-10-14T04:16:49.613Z,45.17
2022-10-14T04:19:17.432Z,45.70
2022-10-14T04:21:44.811Z,47.15
2022-10-14T04:24:12.751Z,45.10
2022-10-14T04:26:50.690Z,46.03
2022-10-14T04:29:25.650Z,45.50
2022-10-14T04:31:59.607Z,45.80
2022-10-14T04:34:26.972Z,21.88
2022-10-14T04:36:54.538Z,21.85
2022-10-14T04:39:31.945Z,46.03
2022-10-14T04:41:59.000Z,43.92
2022-10-14T04:44:26.296Z,45.58
2022-10-14T04:46:55.275Z,44.05
2022-10-14T04:49:25.022Z,20.33
2022-10-14T04:52:02.220Z,20.80
2022-10-14T04:54:41.303Z,43.35
2022-10-14T04:57:09.993Z,45.90
2022-10-14T04:59:38.641Z,43.55
2022-10-14T05:02:15.350Z,44.83
2022-10-14T05:04:50.060Z,22.85
2022-10-14T05:07:17.666Z,20.23
2022-10-14T05:09:49.750Z,21.63
2022-10-14T05:12:24.719Z,44.72
2022-10-14T05:14:57.177Z,44.28
2022-10-14T05:17:32.224Z,46.38
2022-10-14T05:19:59.319Z,45.75
2022-10-14T05:22:28.064Z,45.92
2022-10-14T05:24:55.887Z,44.95
2022-10-14T05:27:23.775Z,44.00
2022-10-14T05:29:51.396Z,44.05
2022-10-14T05:32:18.725Z,46.35
2022-10-14T05:34:47.026Z,47.10
2022-10-14T05:37:23.191Z,21.35
2022-10-14T05:39:52.786Z,47.53
2022-10-14T05:42:23.697Z,45.72
2022-10-14T05:44:54.098Z,20.67
2022-10-14T05:47:21.445Z,16.08
2022-10-14T05:49:52.364Z,17.77
2022-10-14T05:52:19.752Z,46.50
2022-10-14T05:54:48.227Z,45.22
2022-10-14T05:57:19.332Z,22.48
2022-10-14T05:59:47.100Z,45.80
2022-10-14T06:02:15.377Z,20.75
2022-10-14T06:04:42.589Z,15.93
2022-10-14T06:07:10.475Z,46.00
2022-10-14T06:09:39.118Z,47.25
2022-10-14T06:12:07.028Z,47.30
2022-10-14T06:14:35.577Z,22.90
2022-10-14T06:17:02.990Z,18.73
2022-10-14T06:19:33.338Z,48.03
2022-10-14T06:22:00.476Z,48.85
2022-10-14T06:24:27.638Z,71.70
2022-10-14T06:26:54.677Z,48.78
2022-10-14T06:29:26.218Z,48.05
2022-10-14T06:31:53.267Z,49.72
2022-10-14T06:34:23.056Z,49.65
2022-10-14T06:36:50.236Z,48.72
2022-10-14T06:39:17.519Z,49.42
2022-10-14T06:41:44.757Z,49.28
2022-10-14T06:44:19.912Z,48.60
2022-10-14T06:46:47.143Z,48.42
2022-10-14T06:49:14.595Z,48.15
2022-10-14T06:51:41.798Z,49.80
2022-10-14T06:54:09.203Z,21.00
2022-10-14T06:56:38.195Z,20.15
2022-10-14T06:59:05.920Z,50.50
2022-10-14T07:01:33.215Z,24.20
2022-10-14T07:04:03.386Z,17.65
2022-10-14T07:06:30.784Z,25.10
2022-10-14T07:08:57.988Z,47.53
2022-10-14T07:11:25.226Z,50.85
2022-10-14T07:13:52.472Z,49.90
2022-10-14T07:16:19.500Z,50.72
2022-10-14T07:18:46.555Z,23.92
2022-10-14T07:21:13.736Z,49.90
2022-10-14T07:23:41.227Z,24.40
2022-10-14T07:26:08.508Z,19.67
2022-10-14T07:28:35.736Z,51.00
2022-10-14T07:31:07.451Z,52.33
2022-10-14T07:36:15.102Z,52.85
2022-10-14T07:38:45.111Z,51.75
2022-10-14T07:41:19.237Z,52.55
2022-10-14T07:43:48.607Z,51.25
2022-10-14T07:46:28.207Z,50.95
2022-10-14T07:48:57.775Z,53.28
2022-10-14T07:51:26.418Z,51.58
2022-10-14T07:53:55.708Z,53.45
2022-10-14T07:56:24.098Z,56.13
2022-10-14T07:58:51.243Z,52.97
2022-10-14T08:01:18.964Z,55.63
2022-10-14T08:03:47.757Z,54.97
2022-10-14T08:06:15.313Z,53.15
2022-10-14T08:08:43.972Z,52.45
2022-10-14T08:11:15.228Z,52.08
2022-10-14T08:13:46.071Z,53.15
2022-10-14T08:16:16.640Z,52.92
2022-10-14T08:18:44.931Z,50.50
2022-10-14T08:21:12.882Z,51.15
2022-10-14T08:23:39.931Z,53.45
2022-10-14T08:26:28.854Z,52.22
2022-10-14T08:28:56.160Z,53.35
2022-10-14T08:31:23.463Z,53.80
2022-10-14T08:33:50.823Z,53.17
2022-10-14T08:36:19.382Z,53.22
2022-10-14T08:38:47.004Z,55.33
2022-10-14T08:41:17.024Z,53.63
2022-10-14T08:43:52.171Z,54.72
2022-10-14T08:46:32.918Z,55.13
2022-10-14T08:49:08.552Z,54.03
2022-10-14T08:51:36.145Z,54.33
2022-10-14T08:54:11.071Z,55.33
2022-10-14T08:56:38.948Z,56.83
2022-10-14T08:59:12.851Z,55.95
2022-10-14T09:01:57.349Z,57.22
2022-10-14T09:04:24.533Z,56.05
2022-10-14T09:06:53.627Z,60.45
2022-10-14T09:09:44.795Z,61.00
2022-10-14T09:12:20.780Z,62.55
2022-10-14T09:15:08.958Z,62.33
2022-10-14T09:17:48.315Z,62.80
2022-10-14T09:20:20.312Z,61.50
2022-10-14T09:23:04.679Z,66.25
2022-10-14T09:25:35.333Z,69.35
2022-10-14T09:28:02.796Z,66.70
2022-10-14T09:30:36.875Z,65.53
2022-10-14T09:33:05.145Z,65.32
2022-10-14T09:35:42.281Z,70.25
2022-10-14T09:38:13.757Z,65.75
2022-10-14T09:40:45.794Z,60.35
2022-10-14T09:43:20.275Z,60.85
2022-10-14T09:46:08.100Z,58.22
2022-10-14T09:48:44.581Z,60.50
2022-10-14T09:51:25.711Z,56.22
2022-10-14T09:53:55.284Z,59.10
2022-10-14T09:56:38.918Z,57.67
2022-10-14T09:59:21.148Z,58.63
2022-10-14T10:02:00.333Z,57.55
2022-10-14T10:04:33.645Z,58.38
2022-10-14T10:07:05.714Z,52.28
2022-10-14T10:09:33.490Z,48.80
2022-10-14T10:12:00.708Z,49.67
2022-10-14T10:14:33.099Z,49.03
2022-10-14T10:17:12.820Z,54.08
2022-10-14T10:19:51.447Z,52.92
2022-10-14T10:22:27.296Z,53.08
2022-10-14T10:25:06.580Z,51.30
2022-10-14T10:27:41.311Z,52.15
2022-10-14T10:30:30.357Z,49.05
2022-10-14T10:33:29.501Z,45.78
2022-10-14T10:39:01.223Z,44.17
2022-10-14T10:41:49.844Z,41.22
2022-10-14T10:44:40.299Z,37.97
2022-10-14T10:47:24.799Z,40.92
2022-10-14T10:50:21.409Z,42.83
2022-10-14T10:53:01.283Z,42.38
2022-10-14T10:58:41.320Z,39.85
2022-10-14T11:01:43.554Z,43.58
2022-10-14T11:04:28.534Z,42.58
2022-10-14T11:07:33.115Z,45.17
2022-10-14T11:10:37.849Z,41.00
2022-10-14T11:13:29.302Z,42.28
2022-10-14T11:16:10.444Z,41.25
2022-10-14T11:19:13.847Z,42.50
2022-10-14T11:21:57.001Z,45.75
2022-10-14T11:24:42.279Z,44.42
2022-10-14T11:27:14.884Z,44.70
2022-10-14T11:29:49.056Z,48.90
2022-10-14T11:32:51.417Z,46.95
2022-10-14T11:35:38.096Z,46.03
2022-10-14T11:38:08.411Z,47.28
2022-10-14T11:40:42.891Z,49.72
2022-10-14T11:43:39.413Z,48.78
2022-10-14T11:46:13.625Z,46.13
2022-10-14T11:48:51.274Z,41.78
2022-10-14T11:51:35.964Z,43.20
2022-10-14T11:54:18.869Z,41.22
2022-10-14T11:56:56.747Z,41.85
2022-10-14T11:59:46.114Z,41.25
2022-10-14T12:02:49.044Z,42.58
2022-10-14T12:05:36.325Z,42.88
2022-10-14T12:08:41.204Z,42.47
2022-10-14T12:11:29.894Z,43.78
2022-10-14T12:14:20.060Z,44.03
2022-10-14T12:16:49.195Z,46.38
2022-10-14T12:19:26.593Z,44.63
2022-10-14T12:22:21.915Z,40.67
2022-10-14T12:24:55.184Z,48.30
2022-10-14T12:27:25.638Z,46.95
2022-10-14T12:29:55.697Z,46.03
2022-10-14T12:32:25.995Z,44.33
2022-10-14T12:34:57.652Z,41.78
2022-10-14T12:37:28.796Z,45.53
2022-10-14T12:40:07.487Z,43.10
2022-10-14T12:42:44.300Z,44.13
2022-10-14T12:47:46.583Z,43.63
2022-10-14T12:50:29.606Z,47.28
2022-10-14T12:53:01.507Z,48.08
2022-10-14T12:55:33.306Z,44.67
2022-10-14T12:58:06.086Z,43.20
2022-10-14T13:00:40.615Z,44.85
2022-10-14T13:03:20.440Z,43.13
2022-10-14T13:05:48.140Z,44.70
2022-10-14T13:08:23.656Z,45.38
2022-10-14T13:11:02.320Z,47.55
2022-10-14T13:13:47.973Z,49.65
2022-10-14T13:16:24.079Z,49.22
2022-10-14T13:18:53.028Z,51.15
2022-10-14T13:21:26.188Z,52.63
2022-10-14T13:23:55.174Z,51.10
2022-10-14T13:26:42.509Z,50.95
2022-10-14T13:29:23.164Z,50.00
2022-10-14T13:32:17.405Z,53.45
2022-10-14T13:34:54.244Z,52.13
2022-10-14T13:37:44.793Z,52.08
2022-10-14T13:40:42.671Z,53.28
2022-10-14T13:43:29.433Z,53.60
2022-10-14T13:46:06.968Z,51.95
2022-10-14T13:48:42.978Z,51.67
2022-10-14T13:51:24.478Z,53.28
2022-10-14T13:54:20.367Z,51.95
2022-10-14T13:57:35.033Z,52.63
2022-10-14T14:00:22.534Z,52.47
2022-10-14T14:02:41.695Z,49.28
2022-10-14T14:05:15.952Z,49.53
2022-10-14T14:08:22.090Z,53.67
2022-10-14T14:10:32.081Z,50.97
2022-10-14T14:13:04.721Z,52.47
2022-10-14T14:15:32.383Z,51.63
2022-10-14T14:17:59.912Z,52.00
2022-10-14T14:20:29.230Z,52.60
2022-10-14T14:22:58.561Z,52.85
2022-10-14T14:25:43.010Z,49.97
2022-10-14T14:28:15.468Z,46.92
2022-10-14T14:30:54.308Z,49.67
2022-10-14T14:33:32.476Z,51.42
2022-10-14T14:36:04.639Z,49.85
2022-10-14T14:38:34.313Z,50.10
2022-10-14T14:41:07.170Z,52.88
2022-10-14T14:43:38.461Z,50.28
2022-10-14T14:46:17.353Z,53.47
2022-10-14T14:48:45.515Z,53.00
2022-10-14T14:51:14.295Z,52.17
2022-10-14T14:53:42.369Z,52.33
2022-10-14T14:56:18.948Z,51.78
2022-10-14T14:58:52.978Z,52.25
2022-10-14T15:01:29.601Z,51.03
2022-10-14T15:04:13.843Z,51.00
2022-10-14T15:07:01.786Z,50.53
2022-10-14T15:09:52.349Z,49.70
2022-10-14T15:12:23.167Z,49.67
2022-10-14T15:14:53.804Z,51.58
2022-10-14T15:17:41.847Z,50.90
2022-10-14T15:20:14.556Z,48.85
2022-10-14T15:22:43.641Z,48.25
2022-10-14T15:25:12.070Z,47.92
2022-10-14T15:27:46.701Z,49.20
2022-10-14T15:30:34.484Z,50.70
2022-10-14T15:33:18.097Z,50.88
2022-10-14T15:35:53.512Z,49.90
2022-10-14T15:38:20.753Z,50.00
2022-10-14T15:40:49.455Z,49.88
2022-10-14T15:43:26.611Z,48.08
2022-10-14T15:46:17.503Z,48.13
2022-10-14T15:48:54.984Z,49.30
2022-10-14T15:51:23.686Z,49.00
2022-10-14T15:53:51.920Z,49.35
2022-10-14T15:56:22.208Z,50.38
2022-10-14T15:58:49.649Z,50.00
2022-10-14T16:01:22.004Z,48.22
2022-10-14T16:03:52.242Z,72.88
2022-10-14T16:06:22.421Z,52.25
2022-10-14T16:08:49.603Z,51.63
2022-10-14T16:11:23.678Z,50.70
2022-10-14T16:13:50.769Z,52.03
2022-10-14T16:16:27.010Z,52.28
2022-10-14T16:18:54.244Z,49.20
2022-10-14T16:21:21.739Z,50.53
2022-10-14T16:23:48.916Z,51.85
2022-10-14T16:26:16.040Z,52.90
2022-10-14T16:28:43.104Z,54.83
2022-10-14T16:31:14.337Z,51.70
2022-10-14T16:33:44.777Z,54.33
2022-10-14T16:36:15.092Z,51.65
2022-10-14T16:38:42.322Z,54.55
2022-10-14T16:41:10.633Z,52.83
2022-10-14T16:43:37.713Z,51.90
2022-10-14T16:46:09.298Z,52.47
2022-10-14T16:48:38.991Z,51.22
2022-10-14T16:51:06.416Z,54.95
2022-10-14T16:53:44.806Z,53.85
2022-10-14T16:56:38.777Z,52.60
2022-10-14T16:59:07.678Z,51.17
2022-10-14T17:01:35.911Z,51.38
2022-10-14T17:04:04.050Z,51.42
2022-10-14T17:06:34.190Z,53.92
2022-10-14T17:09:01.309Z,55.78
2022-10-14T17:11:29.283Z,52.90
2022-10-14T17:13:59.770Z,57.22
2022-10-14T17:16:28.714Z,57.38
2022-10-14T17:18:56.963Z,56.33
2022-10-14T17:21:26.632Z,55.03
2022-10-14T17:23:54.217Z,54.03
2022-10-14T17:26:21.375Z,51.72
2022-10-14T17:28:48.870Z,52.28
2022-10-14T17:31:19.358Z,59.45
2022-10-14T17:33:46.755Z,56.00
2022-10-14T17:36:27.900Z,51.58
2022-10-14T17:38:57.168Z,51.67
2022-10-14T17:41:26.155Z,52.22
2022-10-14T17:43:54.356Z,52.78
2022-10-14T17:46:23.837Z,53.58
2022-10-14T17:48:57.085Z,57.38
2022-10-14T17:51:25.523Z,64.18
2022-10-14T17:53:58.416Z,62.20
2022-10-14T17:56:27.697Z,54.42
2022-10-14T17:58:57.011Z,54.40
2022-10-14T18:01:37.531Z,53.50
2022-10-14T18:04:11.250Z,53.13
2022-10-14T18:06:43.839Z,54.22
2022-10-14T18:09:12.030Z,53.30
2022-10-14T18:12:07.688Z,54.83
2022-10-14T18:14:30.233Z,53.92
2022-10-14T18:16:59.298Z,53.47
2022-10-14T18:19:27.181Z,54.50
2022-10-14T18:21:54.402Z,53.40
2022-10-14T18:24:21.490Z,56.70
2022-10-14T18:26:52.251Z,55.75
2022-10-14T18:29:19.448Z,54.78
2022-10-14T18:31:49.777Z,55.20
2022-10-14T18:34:17.087Z,53.47
2022-10-14T18:36:44.296Z,56.47
2022-10-14T18:39:13.123Z,54.50
2022-10-14T18:41:42.281Z,54.70
2022-10-14T18:44:09.608Z,55.08
2022-10-14T18:46:38.131Z,55.50
2022-10-14T18:49:07.473Z,60.30
2022-10-14T18:51:37.323Z,59.38
2022-10-14T18:54:07.887Z,55.10
2022-10-14T18:56:40.346Z,59.15
2022-10-14T18:59:13.949Z,60.03
2022-10-14T19:01:41.772Z,59.58
2022-10-14T19:04:14.095Z,59.33
2022-10-14T19:06:45.908Z,58.42
2022-10-14T19:09:13.666Z,58.85
2022-10-14T19:11:41.569Z,57.20
2022-10-14T19:14:09.913Z,60.78
2022-10-14T19:16:38.509Z,60.40
2022-10-14T19:19:15.124Z,63.63
2022-10-14T19:21:43.870Z,66.10
2022-10-14T19:24:13.015Z,73.50
2022-10-14T19:26:43.479Z,69.43
2022-10-14T19:29:13.672Z,71.55
2022-10-14T19:31:41.776Z,66.70
2022-10-14T19:34:11.898Z,65.40
2022-10-14T19:36:39.814Z,63.30
2022-10-14T19:39:09.255Z,62.30
2022-10-14T19:41:44.560Z,62.47
2022-10-14T19:44:14.172Z,61.55
2022-10-14T19:46:41.822Z,60.38
2022-10-14T19:49:12.731Z,60.78
2022-10-14T19:51:39.943Z,61.53
2022-10-14T19:54:07.438Z,61.35
2022-10-14T19:56:34.653Z,58.45
2022-10-14T19:59:01.884Z,58.88
2022-10-14T20:01:30.627Z,58.95
2022-10-14T20:04:00.668Z,59.28
2022-10-14T20:06:31.724Z,59.42
2022-10-14T20:09:02.513Z,59.03
2022-10-14T20:11:29.780Z,60.33
2022-10-14T20:13:57.379Z,61.00
2022-10-14T20:16:24.772Z,192.25
2022-10-14T20:18:52.412Z,72.85
2022-10-14T20:21:19.596Z,57.40
2022-10-14T20:23:46.654Z,59.45
2022-10-14T20:26:20.028Z,61.28
2022-10-14T20:28:48.206Z,60.22
2022-10-14T20:31:19.373Z,61.45
2022-10-14T20:33:47.927Z,60.28
2022-10-14T20:36:20.502Z,59.25
2022-10-14T20:38:48.883Z,60.92
2022-10-14T20:41:17.689Z,57.85
2022-10-14T20:43:45.605Z,57.70
2022-10-14T20:46:13.576Z,60.97
2022-10-14T20:48:40.747Z,58.97
2022-10-14T20:51:13.778Z,59.17
2022-10-14T20:56:13.608Z,57.92
2022-10-14T20:58:41.549Z,59.10
2022-10-14T21:01:17.712Z,57.97
2022-10-14T21:03:47.604Z,54.80
2022-10-14T21:06:20.152Z,57.90
2022-10-14T21:08:49.564Z,54.42
2022-10-14T21:11:18.594Z,56.75
2022-10-14T21:13:47.751Z,56.00
2022-10-14T21:16:21.957Z,59.17
2022-10-14T21:18:55.146Z,60.88
2022-10-14T21:23:52.950Z,56.90
2022-10-14T21:26:20.020Z,61.03
2022-10-14T21:28:47.229Z,59.53
2022-10-14T21:31:18.770Z,59.00
2022-10-14T21:33:47.905Z,59.38
2022-10-14T21:36:16.975Z,58.45
2022-10-14T21:38:44.225Z,59.10
2022-10-14T21:41:12.682Z,56.35
2022-10-14T21:43:40.254Z,61.95
2022-10-14T21:46:10.371Z,63.10
2022-10-14T21:48:37.751Z,61.20
2022-10-14T21:51:18.272Z,59.92
2022-10-14T21:53:46.724Z,62.33
2022-10-14T21:56:15.568Z,59.58
2022-10-14T21:58:43.480Z,57.55
2022-10-14T22:01:16.958Z,61.13
2022-10-14T22:03:44.734Z,59.95
2022-10-14T22:06:16.448Z,60.40
2022-10-14T22:08:48.864Z,61.47
2022-10-14T22:11:22.530Z,63.03
2022-10-14T22:13:50.321Z,60.15
2022-10-14T22:16:18.449Z,63.80
2022-10-14T22:18:47.968Z,62.75
2022-10-14T22:21:16.805Z,61.00
2022-10-14T22:23:44.722Z,63.15
2022-10-14T22:26:14.003Z,62.38
2022-10-14T22:28:42.015Z,62.40
2022-10-14T22:31:11.944Z,61.50
2022-10-14T22:33:39.761Z,61.28
2022-10-14T22:36:12.938Z,63.72
2022-10-14T22:38:44.893Z,63.63
2022-10-14T22:41:14.166Z,62.85
2022-10-14T22:43:50.751Z,59.35
2022-10-14T22:46:20.470Z,61.58
2022-10-14T22:48:50.887Z,61.70
2022-10-14T22:51:20.114Z,63.00
2022-10-14T22:53:47.432Z,63.17
2022-10-14T22:56:22.542Z,60.20
2022-10-14T22:59:10.831Z,59.33
2022-10-14T23:01:39.570Z,59.05
2022-10-14T23:04:07.061Z,57.22
2022-10-14T23:06:34.914Z,60.83
2022-10-14T23:09:03.051Z,57.28
2022-10-14T23:11:31.427Z,58.17
2022-10-14T23:14:01.453Z,57.03
2022-10-14T23:16:31.856Z,56.60
2022-10-14T23:18:59.606Z,55.20
2022-10-14T23:21:35.199Z,60.92
2022-10-14T23:24:08.333Z,55.05
2022-10-14T23:26:36.662Z,54.30
2022-10-14T23:29:09.877Z,54.95
2022-10-14T23:31:38.430Z,53.67
2022-10-14T23:34:09.959Z,56.15
2022-10-14T23:36:37.026Z,54.53
2022-10-14T23:39:04.895Z,56.58
2022-10-14T23:41:31.946Z,55.10
2022-10-14T23:43:59.043Z,54.80
2022-10-14T23:46:26.365Z,56.83
2022-10-14T23:49:06.592Z,56.45
2022-10-14T23:51:34.266Z,54.13
2022-10-14T23:54:01.551Z,55.08
2022-10-14T23:56:28.542Z,55.58
2022-10-14T23:58:55.547Z,54.00
